Time;durP1;ratioP1;P1;durP2;ratioP2;P2;SDS_P1;SDS_P2;PMS_P1;PMS_P2;Temp;Humidity;BMP_temperature;BMP_pressure;BME280_temperature;BME280_humidity;BME280_pressure;Samples;Min_cycle;Max_cycle;Signal;HPM_P1;HPM_P2
2021/03/07 00:01:10;;;;;;;47.60;44.55;;;;;;;;;;5040568;28;20033;-79
2021/03/07 00:03:37;;;;;;;47.75;44.83;;;;;;;;;;5048796;28;20045;-79
2021/03/07 00:06:04;;;;;;;43.88;41.60;;;;;;;;;;5045942;28;20448;-79
2021/03/07 00:08:37;;;;;;;47.85;44.90;;;;;;;;;;5032824;28;20051;-79
2021/03/07 00:11:18;;;;;;;46.97;44.47;;;;;;;;;;5039648;28;20044;-79
2021/03/07 00:13:45;;;;;;;45.55;42.85;;;;;;;;;;5040851;28;20505;-79
2021/03/07 00:16:11;;;;;;;43.72;40.78;;;;;;;;;;5048610;28;20033;-79
2021/03/07 00:18:39;;;;;;;46.78;44.40;;;;;;;;;;5009946;28;20080;-79
2021/03/07 00:21:06;;;;;;;48.95;46.17;;;;;;;;;;5012130;28;20075;-79
2021/03/07 00:23:33;;;;;;;45.50;43.13;;;;;;;;;;5046105;28;20493;-79
2021/03/07 00:26:00;;;;;;;45.92;43.25;;;;;;;;;;5024556;28;20050;-79
2021/03/07 00:28:27;;;;;;;45.55;43.05;;;;;;;;;;5031347;28;20080;-79
2021/03/07 00:30:54;;;;;;;42.67;40.58;;;;;;;;;;5026571;28;20440;-79
2021/03/07 00:33:21;;;;;;;46.33;44.13;;;;;;;;;;5049173;28;20067;-79
2021/03/07 00:35:48;;;;;;;39.50;37.83;;;;;;;;;;5029127;28;20073;-79
2021/03/07 00:38:15;;;;;;;40.00;37.90;;;;;;;;;;5028140;28;20618;-79
2021/03/07 00:40:42;;;;;;;44.30;42.00;;;;;;;;;;5013365;28;20033;-79
2021/03/07 00:43:09;;;;;;;38.30;36.25;;;;;;;;;;5030730;28;20037;-79
2021/03/07 00:45:36;;;;;;;42.10;40.17;;;;;;;;;;5014792;28;20300;-79
2021/03/07 00:48:03;;;;;;;40.38;38.78;;;;;;;;;;5015969;28;20094;-79
2021/03/07 00:50:30;;;;;;;43.95;41.38;;;;;;;;;;5011804;28;20400;-79
2021/03/07 00:52:57;;;;;;;43.40;41.40;;;;;;;;;;5044894;28;20115;-79
2021/03/07 00:55:25;;;;;;;44.00;41.67;;;;;;;;;;5022952;28;20072;-79
2021/03/07 00:57:52;;;;;;;42.83;40.80;;;;;;;;;;5017126;28;20426;-78
2021/03/07 01:00:24;;;;;;;43.45;41.22;;;;;;;;;;5015765;28;20048;-78
2021/03/07 01:02:51;;;;;;;43.00;41.00;;;;;;;;;;5029443;28;20111;-79
2021/03/07 01:05:18;;;;;;;43.50;40.85;;;;;;;;;;5050250;28;20063;-80
2021/03/07 01:07:46;;;;;;;45.25;42.53;;;;;;;;;;5036450;28;20438;-79
2021/03/07 01:10:18;;;;;;;45.42;42.65;;;;;;;;;;5028546;28;20459;-79
2021/03/07 01:12:47;;;;;;;45.20;42.42;;;;;;;;;;5042052;28;20077;-79
2021/03/07 01:15:14;;;;;;;42.97;40.75;;;;;;;;;;5021425;28;20121;-79
2021/03/07 01:17:41;;;;;;;43.55;41.45;;;;;;;;;;5027279;28;20045;-78
2021/03/07 01:20:12;;;;;;;42.05;39.58;;;;;;;;;;5022392;28;20521;-78
2021/03/07 01:22:49;;;;;;;43.83;41.42;;;;;;;;;;5024858;28;20128;-78
2021/03/07 01:25:17;;;;;;;43.80;41.17;;;;;;;;;;5027697;28;20049;-78
2021/03/07 01:27:45;;;;;;;42.00;39.72;;;;;;;;;;5020417;28;20045;-78
2021/03/07 01:30:13;;;;;;;43.38;41.42;;;;;;;;;;5000061;28;20041;-79
2021/03/07 01:32:40;;;;;;;41.85;40.17;;;;;;;;;;5012056;28;20383;-79
2021/03/07 01:35:07;;;;;;;45.42;42.67;;;;;;;;;;5024784;28;20101;-79
2021/03/07 01:37:34;;;;;;;43.72;41.65;;;;;;;;;;5025363;28;20398;-79
2021/03/07 01:40:02;;;;;;;41.95;40.08;;;;;;;;;;5022351;28;20567;-79
2021/03/07 01:42:29;;;;;;;41.55;39.75;;;;;;;;;;5010357;28;20069;-79
2021/03/07 01:44:56;;;;;;;39.70;37.75;;;;;;;;;;5027586;28;20073;-79
2021/03/07 01:47:28;;;;;;;39.40;37.88;;;;;;;;;;5005633;28;20133;-79
2021/03/07 01:49:55;;;;;;;41.07;39.20;;;;;;;;;;4997091;28;20048;-79
2021/03/07 01:52:22;;;;;;;41.10;39.35;;;;;;;;;;5025190;28;20069;-79
2021/03/07 01:54:49;;;;;;;40.03;38.00;;;;;;;;;;4994096;28;20128;-79
2021/03/07 01:57:17;;;;;;;43.88;41.60;;;;;;;;;;5028364;28;20334;-79
2021/03/07 01:59:44;;;;;;;42.97;40.92;;;;;;;;;;5023243;28;20774;-79
2021/03/07 02:02:11;;;;;;;44.85;42.35;;;;;;;;;;5026608;28;20057;-79
2021/03/07 02:04:38;;;;;;;39.92;38.30;;;;;;;;;;5019962;28;20519;-79
2021/03/07 02:07:05;;;;;;;42.30;40.10;;;;;;;;;;5004019;28;20393;-79
2021/03/07 02:09:33;;;;;;;40.78;39.08;;;;;;;;;;5021522;28;20033;-79
2021/03/07 02:12:00;;;;;;;43.67;41.88;;;;;;;;;;5023840;28;20030;-79
2021/03/07 02:14:28;;;;;;;40.72;39.00;;;;;;;;;;5026674;28;20092;-79
2021/03/07 02:16:55;;;;;;;42.08;40.25;;;;;;;;;;5014392;28;20064;-79
2021/03/07 02:19:26;;;;;;;37.85;36.40;;;;;;;;;;5015858;28;20044;-79
2021/03/07 02:21:56;;;;;;;39.97;38.22;;;;;;;;;;5011120;28;20553;-79
2021/03/07 02:24:23;;;;;;;41.92;40.33;;;;;;;;;;5017639;28;20038;-79
2021/03/07 02:26:51;;;;;;;42.05;39.80;;;;;;;;;;5025804;28;20068;-79
2021/03/07 02:29:19;;;;;;;42.55;40.97;;;;;;;;;;5026209;28;20040;-79
2021/03/07 02:31:49;;;;;;;41.60;39.58;;;;;;;;;;5023662;28;20029;-79
2021/03/07 02:34:29;;;;;;;40.28;38.53;;;;;;;;;;5030301;28;20045;-79
2021/03/07 02:36:57;;;;;;;41.17;38.90;;;;;;;;;;5011255;28;20045;-79
2021/03/07 02:39:25;;;;;;;40.47;38.72;;;;;;;;;;5043078;28;20052;-79
2021/03/07 02:41:55;;;;;;;45.22;42.72;;;;;;;;;;5015702;28;20383;-79
2021/03/07 02:44:23;;;;;;;41.40;39.08;;;;;;;;;;5023477;28;20050;-79
2021/03/07 02:46:51;;;;;;;42.65;40.28;;;;;;;;;;5028052;28;20048;-79
2021/03/07 02:49:19;;;;;;;43.58;41.30;;;;;;;;;;5029254;28;20033;-79
2021/03/07 02:51:46;;;;;;;45.67;43.15;;;;;;;;;;5026528;28;20394;-79
2021/03/07 02:54:15;;;;;;;41.85;39.50;;;;;;;;;;5015433;28;20046;-79
2021/03/07 02:56:45;;;;;;;44.55;42.38;;;;;;;;;;5009357;28;20049;-79
2021/03/07 02:59:17;;;;;;;39.25;37.67;;;;;;;;;;5029134;28;20037;-79
2021/03/07 03:01:45;;;;;;;41.63;39.83;;;;;;;;;;5029237;28;20073;-79
2021/03/07 03:04:13;;;;;;;41.97;40.17;;;;;;;;;;5023239;28;20030;-79
2021/03/07 03:06:42;;;;;;;46.17;43.47;;;;;;;;;;4998244;28;20057;-79
2021/03/07 03:09:11;;;;;;;42.10;40.10;;;;;;;;;;5008761;28;20053;-79
2021/03/07 03:11:39;;;;;;;43.85;41.40;;;;;;;;;;5021581;28;20050;-79
2021/03/07 03:14:12;;;;;;;44.83;42.70;;;;;;;;;;5014151;28;20111;-79
2021/03/07 03:16:39;;;;;;;45.75;43.55;;;;;;;;;;5025978;28;20084;-79
2021/03/07 03:19:08;;;;;;;44.67;42.35;;;;;;;;;;5029836;28;20095;-79
2021/03/07 03:21:35;;;;;;;43.58;41.38;;;;;;;;;;5015657;28;20491;-79
2021/03/07 03:24:02;;;;;;;39.42;37.38;;;;;;;;;;5019768;28;20087;-79
2021/03/07 03:26:29;;;;;;;43.72;41.95;;;;;;;;;;5009080;28;20187;-79
2021/03/07 03:28:58;;;;;;;45.08;43.05;;;;;;;;;;5008693;28;20049;-79
2021/03/07 03:31:26;;;;;;;39.42;37.47;;;;;;;;;;5026347;28;20099;-79
2021/03/07 03:33:53;;;;;;;40.40;38.70;;;;;;;;;;5015365;28;20041;-79
2021/03/07 03:36:20;;;;;;;41.13;39.40;;;;;;;;;;5025404;28;20416;-79
2021/03/07 03:38:50;;;;;;;44.28;42.00;;;;;;;;;;5013538;28;20441;-79
2021/03/07 03:41:18;;;;;;;41.70;39.60;;;;;;;;;;5017683;28;20094;-79
2021/03/07 03:43:55;;;;;;;44.28;41.88;;;;;;;;;;5019253;28;20128;-79
2021/03/07 03:46:22;;;;;;;44.40;42.15;;;;;;;;;;5013149;28;20049;-79
2021/03/07 03:48:53;;;;;;;44.80;42.53;;;;;;;;;;5023499;28;20514;-79
2021/03/07 03:51:20;;;;;;;43.45;41.55;;;;;;;;;;5027612;28;20124;-79
2021/03/07 03:53:48;;;;;;;46.45;44.35;;;;;;;;;;5025435;28;20060;-79
2021/03/07 03:56:17;;;;;;;41.70;39.88;;;;;;;;;;5023154;28;20196;-79
2021/03/07 03:58:44;;;;;;;40.92;39.25;;;;;;;;;;5030277;28;20049;-79
2021/03/07 04:01:12;;;;;;;41.10;39.53;;;;;;;;;;5020042;28;20507;-78
2021/03/07 04:03:39;;;;;;;41.75;40.05;;;;;;;;;;5035784;28;20040;-78
2021/03/07 04:06:07;;;;;;;43.10;40.97;;;;;;;;;;5018108;28;20045;-78
2021/03/07 04:08:36;;;;;;;43.15;41.17;;;;;;;;;;5023944;28;20041;-78
2021/03/07 04:11:03;;;;;;;42.50;40.65;;;;;;;;;;5030139;28;20076;-79
2021/03/07 04:13:31;;;;;;;45.92;43.83;;;;;;;;;;5022346;28;20081;-79
2021/03/07 04:15:58;;;;;;;45.17;43.13;;;;;;;;;;5017515;28;20100;-79
2021/03/07 04:18:27;;;;;;;44.00;41.95;;;;;;;;;;5019120;28;20034;-79
2021/03/07 04:20:55;;;;;;;45.10;43.17;;;;;;;;;;5021046;28;20117;-79
2021/03/07 04:23:21;;;;;;;44.83;42.53;;;;;;;;;;5019867;28;20746;-79
2021/03/07 04:25:48;;;;;;;37.95;35.75;;;;;;;;;;5025235;28;20056;-79
2021/03/07 04:28:16;;;;;;;42.30;40.47;;;;;;;;;;5024759;28;20029;-79
2021/03/07 04:30:43;;;;;;;41.17;39.45;;;;;;;;;;5013309;28;20114;-79
2021/03/07 04:33:10;;;;;;;41.90;39.97;;;;;;;;;;5023279;28;20041;-79
2021/03/07 04:35:39;;;;;;;41.13;39.30;;;;;;;;;;5026353;28;20037;-79
2021/03/07 04:38:07;;;;;;;42.35;40.33;;;;;;;;;;5010046;28;20394;-79
2021/03/07 04:40:36;;;;;;;42.05;40.38;;;;;;;;;;5025286;28;20042;-78
2021/03/07 04:43:03;;;;;;;41.10;39.55;;;;;;;;;;5029698;28;20497;-79
2021/03/07 04:45:32;;;;;;;47.30;45.03;;;;;;;;;;5011060;28;20091;-79
2021/03/07 04:47:59;;;;;;;43.28;40.90;;;;;;;;;;5026645;28;20061;-79
2021/03/07 04:50:26;;;;;;;45.55;43.63;;;;;;;;;;5027281;28;20041;-79
2021/03/07 04:52:53;;;;;;;41.00;39.28;;;;;;;;;;5022603;28;20506;-79
2021/03/07 04:55:20;;;;;;;39.38;37.97;;;;;;;;;;5023376;28;20034;-79
2021/03/07 04:57:47;;;;;;;42.97;41.35;;;;;;;;;;5005765;28;20049;-79
2021/03/07 05:00:15;;;;;;;39.35;37.88;;;;;;;;;;5025054;28;20033;-79
2021/03/07 05:02:42;;;;;;;44.08;42.55;;;;;;;;;;5011031;28;20045;-79
2021/03/07 05:05:09;;;;;;;41.13;39.78;;;;;;;;;;5022435;28;20433;-79
2021/03/07 05:07:36;;;;;;;39.00;37.70;;;;;;;;;;5015084;28;20057;-79
2021/03/07 05:10:05;;;;;;;40.55;39.30;;;;;;;;;;5027360;28;20084;-79
2021/03/07 05:12:32;;;;;;;41.20;39.90;;;;;;;;;;5028772;28;20052;-79
2021/03/07 05:15:07;;;;;;;40.95;39.47;;;;;;;;;;5030546;28;20036;-79
2021/03/07 05:17:34;;;;;;;41.38;39.88;;;;;;;;;;5038834;28;20482;-79
2021/03/07 05:20:01;;;;;;;42.67;40.97;;;;;;;;;;5015730;28;20433;-79
2021/03/07 05:22:28;;;;;;;38.25;36.90;;;;;;;;;;5046106;28;20041;-78
2021/03/07 05:24:55;;;;;;;41.15;39.45;;;;;;;;;;5043658;28;20089;-78
2021/03/07 05:27:22;;;;;;;39.60;38.13;;;;;;;;;;5030520;28;20099;-78
2021/03/07 05:29:49;;;;;;;42.65;40.65;;;;;;;;;;5046819;28;20103;-79
2021/03/07 05:32:16;;;;;;;41.45;39.47;;;;;;;;;;5047024;28;20041;-79
2021/03/07 05:34:44;;;;;;;42.22;40.53;;;;;;;;;;5029136;28;20090;-79
2021/03/07 05:37:11;;;;;;;41.40;39.42;;;;;;;;;;5042929;28;20482;-79
2021/03/07 05:39:38;;;;;;;46.08;44.13;;;;;;;;;;5020113;28;20064;-79
2021/03/07 05:42:05;;;;;;;46.10;43.58;;;;;;;;;;5044102;28;20025;-79
2021/03/07 05:44:32;;;;;;;41.78;40.25;;;;;;;;;;5029173;28;20079;-79
2021/03/07 05:46:59;;;;;;;40.65;39.25;;;;;;;;;;5029650;28;20041;-79
2021/03/07 05:49:26;;;;;;;39.63;38.08;;;;;;;;;;5013921;28;20310;-79
2021/03/07 05:51:54;;;;;;;40.60;39.08;;;;;;;;;;5030593;28;20036;-79
2021/03/07 05:54:20;;;;;;;41.88;40.15;;;;;;;;;;5026525;28;20056;-79
2021/03/07 05:56:52;;;;;;;44.35;41.42;;;;;;;;;;5029806;28;20033;-79
2021/03/07 05:59:19;;;;;;;48.63;46.25;;;;;;;;;;5019731;28;20034;-79
2021/03/07 06:01:46;;;;;;;43.40;41.45;;;;;;;;;;5042671;28;20048;-79
2021/03/07 06:04:13;;;;;;;44.88;42.97;;;;;;;;;;5048553;28;20041;-79
2021/03/07 06:06:40;;;;;;;43.80;41.80;;;;;;;;;;5014463;28;20094;-79
2021/03/07 06:09:22;;;;;;;43.03;41.33;;;;;;;;;;5027397;28;20051;-79
2021/03/07 06:11:50;;;;;;;44.13;42.55;;;;;;;;;;5047517;28;20102;-79
2021/03/07 06:14:20;;;;;;;43.65;42.10;;;;;;;;;;5023660;28;20041;-79
2021/03/07 06:17:00;;;;;;;43.38;41.67;;;;;;;;;;5035327;28;20533;-79
2021/03/07 06:19:28;;;;;;;45.78;43.45;;;;;;;;;;5045528;28;20127;-79
2021/03/07 06:21:55;;;;;;;48.90;46.38;;;;;;;;;;5010705;28;20128;-79
2021/03/07 06:24:34;;;;;;;40.10;38.60;;;;;;;;;;5038992;28;20406;-79
2021/03/07 06:27:05;;;;;;;44.40;42.63;;;;;;;;;;5035904;28;20073;-78
2021/03/07 06:29:32;;;;;;;39.78;38.35;;;;;;;;;;5041234;28;20444;-79
2021/03/07 06:31:59;;;;;;;43.65;42.05;;;;;;;;;;5032312;28;20071;-78
2021/03/07 06:34:27;;;;;;;42.63;40.85;;;;;;;;;;5026649;28;20044;-78
2021/03/07 06:37:01;;;;;;;38.53;37.13;;;;;;;;;;5047344;28;20034;-78
2021/03/07 06:39:29;;;;;;;42.03;40.50;;;;;;;;;;5048790;28;20087;-78
2021/03/07 06:42:03;;;;;;;40.67;39.38;;;;;;;;;;5043217;28;20076;-78
2021/03/07 06:44:30;;;;;;;39.25;37.95;;;;;;;;;;5006593;28;20119;-78
2021/03/07 06:47:08;;;;;;;43.88;42.25;;;;;;;;;;5042680;28;20524;-78
2021/03/07 06:49:36;;;;;;;43.13;41.05;;;;;;;;;;5019684;28;20402;-78
2021/03/07 06:52:13;;;;;;;40.47;39.08;;;;;;;;;;5048620;28;20120;-78
2021/03/07 06:54:40;;;;;;;41.80;40.35;;;;;;;;;;5037450;28;20116;-78
2021/03/07 06:57:07;;;;;;;40.92;39.33;;;;;;;;;;5040887;28;20071;-78
2021/03/07 06:59:35;;;;;;;40.13;38.65;;;;;;;;;;5037328;28;20041;-78
2021/03/07 07:02:09;;;;;;;39.50;38.30;;;;;;;;;;5025010;28;20064;-78
2021/03/07 07:04:41;;;;;;;37.90;36.65;;;;;;;;;;5029749;28;20060;-79
2021/03/07 07:07:09;;;;;;;39.03;37.65;;;;;;;;;;5037304;28;20073;-79
2021/03/07 07:09:36;;;;;;;42.67;41.33;;;;;;;;;;5027261;28;20127;-78
2021/03/07 07:12:04;;;;;;;42.63;41.05;;;;;;;;;;5025301;28;20045;-78
2021/03/07 07:14:31;;;;;;;41.22;39.83;;;;;;;;;;5041916;28;20064;-78
2021/03/07 07:16:58;;;;;;;39.20;37.67;;;;;;;;;;5047296;28;20057;-78
2021/03/07 07:19:26;;;;;;;39.22;37.70;;;;;;;;;;5017542;28;20052;-78
2021/03/07 07:21:54;;;;;;;45.35;42.78;;;;;;;;;;5029151;28;20061;-79
2021/03/07 07:24:22;;;;;;;44.90;42.45;;;;;;;;;;5047938;28;20052;-79
2021/03/07 07:26:49;;;;;;;49.47;46.42;;;;;;;;;;5042921;28;20102;-79
2021/03/07 07:29:17;;;;;;;47.55;44.80;;;;;;;;;;5049882;28;20068;-79
2021/03/07 07:32:02;;;;;;;50.80;47.88;;;;;;;;;;5012791;28;20564;-79
2021/03/07 07:34:32;;;;;;;39.55;38.10;;;;;;;;;;5042018;28;20037;-79
2021/03/07 07:37:08;;;;;;;40.97;39.25;;;;;;;;;;5038173;28;20029;-79
2021/03/07 07:39:36;;;;;;;44.63;42.65;;;;;;;;;;5031437;28;20040;-79
2021/03/07 07:42:23;;;;;;;42.28;40.60;;;;;;;;;;5025595;28;20358;-79
2021/03/07 07:44:51;;;;;;;43.47;41.47;;;;;;;;;;5024889;28;20091;-79
2021/03/07 07:47:18;;;;;;;42.70;41.00;;;;;;;;;;5029610;28;20124;-79
2021/03/07 07:49:53;;;;;;;41.40;39.72;;;;;;;;;;5030099;28;20041;-79
2021/03/07 07:52:26;;;;;;;39.78;38.08;;;;;;;;;;5033481;28;20076;-79
2021/03/07 07:55:00;;;;;;;41.05;39.35;;;;;;;;;;5047624;28;20039;-79
2021/03/07 07:57:38;;;;;;;43.10;40.83;;;;;;;;;;5010483;28;20493;-79
2021/03/07 08:00:06;;;;;;;42.53;40.33;;;;;;;;;;5029289;28;20354;-79
2021/03/07 08:02:42;;;;;;;44.38;42.28;;;;;;;;;;5015821;28;20075;-79
2021/03/07 08:05:26;;;;;;;38.33;36.78;;;;;;;;;;5033446;28;20041;-79
2021/03/07 08:07:56;;;;;;;36.42;35.35;;;;;;;;;;5031249;28;20067;-79
2021/03/07 08:10:40;;;;;;;37.47;36.13;;;;;;;;;;5026066;28;20069;-79
2021/03/07 08:13:11;;;;;;;39.08;37.42;;;;;;;;;;5032500;28;20106;-79
2021/03/07 08:15:45;;;;;;;34.15;33.05;;;;;;;;;;5048095;28;20102;-79
2021/03/07 08:18:14;;;;;;;36.00;34.20;;;;;;;;;;5024726;28;20433;-78
2021/03/07 08:20:40;;;;;;;17.58;16.67;;;;;;;;;;5039393;28;20588;-79
2021/03/07 08:23:17;;;;;;;26.23;25.00;;;;;;;;;;5042140;28;20064;-79
2021/03/07 08:25:47;;;;;;;15.23;14.45;;;;;;;;;;5037825;28;20056;-79
2021/03/07 08:28:30;;;;;;;13.00;12.10;;;;;;;;;;5045107;28;20043;-79
2021/03/07 08:30:58;;;;;;;10.90;10.60;;;;;;;;;;5025744;28;20049;-79
2021/03/07 08:33:26;;;;;;;9.82;9.52;;;;;;;;;;5030940;28;20338;-79
2021/03/07 08:36:11;;;;;;;17.60;13.05;;;;;;;;;;5025319;28;20093;-79
2021/03/07 08:38:39;;;;;;;12.82;12.23;;;;;;;;;;5024052;28;20037;-79
2021/03/07 08:41:05;;;;;;;13.00;12.60;;;;;;;;;;5030352;28;20091;-79
2021/03/07 08:43:32;;;;;;;12.27;11.23;;;;;;;;;;5014393;28;20483;-79
2021/03/07 08:46:13;;;;;;;11.27;10.55;;;;;;;;;;5047412;28;20064;-79
2021/03/07 08:48:41;;;;;;;10.65;10.00;;;;;;;;;;5046917;28;20048;-79
2021/03/07 08:51:10;;;;;;;11.15;10.52;;;;;;;;;;5043898;28;20102;-79
2021/03/07 08:53:40;;;;;;;9.70;9.27;;;;;;;;;;5047744;28;20052;-79
2021/03/07 08:56:08;;;;;;;13.60;12.48;;;;;;;;;;5028452;28;20540;-79
2021/03/07 08:58:36;;;;;;;14.25;13.13;;;;;;;;;;5045498;28;20037;-79
2021/03/07 09:01:03;;;;;;;15.05;13.95;;;;;;;;;;5024866;28;20061;-79
2021/03/07 09:03:30;;;;;;;13.65;12.93;;;;;;;;;;5026371;28;20145;-79
2021/03/07 09:05:57;;;;;;;13.07;12.38;;;;;;;;;;5045174;28;20041;-79
2021/03/07 09:08:28;;;;;;;15.65;14.55;;;;;;;;;;5047309;28;20045;-79
2021/03/07 09:10:59;;;;;;;13.05;12.35;;;;;;;;;;5026402;28;20042;-79
2021/03/07 09:13:28;;;;;;;14.43;13.63;;;;;;;;;;5046517;28;20048;-79
2021/03/07 09:16:02;;;;;;;12.00;11.32;;;;;;;;;;5042867;28;20548;-79
2021/03/07 09:18:31;;;;;;;15.93;14.40;;;;;;;;;;5027986;28;20044;-79
2021/03/07 09:21:17;;;;;;;14.32;13.27;;;;;;;;;;5049384;28;20033;-78
2021/03/07 09:23:45;;;;;;;15.50;14.27;;;;;;;;;;5026061;28;20581;-79
2021/03/07 09:26:13;;;;;;;13.68;12.50;;;;;;;;;;5038144;28;20566;-79
2021/03/07 09:28:41;;;;;;;13.40;12.40;;;;;;;;;;5030347;28;20041;-79
2021/03/07 09:31:14;;;;;;;11.88;11.07;;;;;;;;;;5026129;28;20033;-79
2021/03/07 09:33:41;;;;;;;;;;;;;;;;;;5015358;28;20045;-79
2021/03/07 09:36:10;;;;;;;12.00;11.20;;;;;;;;;;5018094;28;19921;-79
2021/03/07 09:38:51;;;;;;;11.95;11.27;;;;;;;;;;5020072;28;20041;-79
2021/03/07 09:41:27;;;;;;;12.75;11.95;;;;;;;;;;5029421;28;20072;-79
2021/03/07 09:43:55;;;;;;;9.93;9.27;;;;;;;;;;5013378;28;20033;-79
2021/03/07 09:46:22;;;;;;;7.50;7.30;;;;;;;;;;5045924;28;20045;-79
2021/03/07 09:48:54;;;;;;;6.78;6.57;;;;;;;;;;5028999;28;20041;-79
2021/03/07 09:51:21;;;;;;;11.63;10.80;;;;;;;;;;5042601;28;20042;-79
2021/03/07 09:53:48;;;;;;;11.18;10.65;;;;;;;;;;5050735;28;20389;-79
2021/03/07 09:56:25;;;;;;;8.65;8.32;;;;;;;;;;5036573;28;20132;-79
2021/03/07 09:58:52;;;;;;;6.97;6.57;;;;;;;;;;5025355;28;20040;-79
2021/03/07 10:01:19;;;;;;;5.47;5.35;;;;;;;;;;5024432;28;20073;-79
2021/03/07 10:03:46;;;;;;;6.15;6.00;;;;;;;;;;5021512;28;20038;-79
2021/03/07 10:06:18;;;;;;;15.40;13.82;;;;;;;;;;5021081;28;20042;-79
2021/03/07 10:08:46;;;;;;;6.38;6.28;;;;;;;;;;5045963;28;20073;-79
2021/03/07 10:11:21;;;;;;;6.90;6.70;;;;;;;;;;5042795;28;20044;-79
2021/03/07 10:13:59;;;;;;;5.07;4.78;;;;;;;;;;5039497;28;20037;-79
2021/03/07 10:16:27;;;;;;;3.92;3.83;;;;;;;;;;5038023;28;20490;-79
2021/03/07 10:19:09;;;;;;;6.00;5.70;;;;;;;;;;5030445;28;20117;-80
2021/03/07 10:21:37;;;;;;;6.88;6.57;;;;;;;;;;5048727;28;20416;-80
2021/03/07 10:24:14;;;;;;;7.32;6.97;;;;;;;;;;5016039;28;20048;-80
2021/03/07 10:26:42;;;;;;;7.07;6.80;;;;;;;;;;5014576;28;20296;-80
2021/03/07 10:29:29;;;;;;;8.20;7.55;;;;;;;;;;5029431;28;20072;-79
2021/03/07 10:32:13;;;;;;;7.18;6.70;;;;;;;;;;5047132;28;20040;-79
2021/03/07 10:34:41;;;;;;;4.38;4.18;;;;;;;;;;5050465;28;20045;-79
2021/03/07 10:37:08;;;;;;;3.55;3.47;;;;;;;;;;5019488;28;20037;-79
2021/03/07 10:39:35;;;;;;;3.75;3.65;;;;;;;;;;5041511;28;20025;-80
2021/03/07 10:42:03;;;;;;;3.63;3.53;;;;;;;;;;5046901;28;20029;-80
2021/03/07 10:44:30;;;;;;;2.85;2.75;;;;;;;;;;5040862;28;20079;-80
2021/03/07 10:46:57;;;;;;;3.28;3.08;;;;;;;;;;5029510;28;20731;-80
2021/03/07 10:49:24;;;;;;;3.17;3.10;;;;;;;;;;5012702;28;20513;-80
2021/03/07 10:51:52;;;;;;;4.20;4.10;;;;;;;;;;5042522;28;20504;-80
2021/03/07 10:54:19;;;;;;;4.07;3.97;;;;;;;;;;5033729;28;20040;-80
2021/03/07 10:56:47;;;;;;;5.00;4.72;;;;;;;;;;5044685;28;20541;-80
2021/03/07 10:59:14;;;;;;;4.82;3.50;;;;;;;;;;5048640;28;20066;-80
2021/03/07 11:01:43;;;;;;;4.05;3.75;;;;;;;;;;5017752;28;20049;-80
2021/03/07 11:04:11;;;;;;;5.75;2.88;;;;;;;;;;5029089;28;20087;-80
2021/03/07 11:06:37;;;;;;;3.33;3.17;;;;;;;;;;5030161;28;20128;-80
2021/03/07 11:09:05;;;;;;;3.90;3.60;;;;;;;;;;5033968;28;20045;-80
2021/03/07 11:11:37;;;;;;;4.38;4.13;;;;;;;;;;5032349;28;20128;-79
2021/03/07 11:14:04;;;;;;;3.45;3.22;;;;;;;;;;5041929;28;20110;-80
2021/03/07 11:16:31;;;;;;;3.83;3.72;;;;;;;;;;5048768;28;20029;-79
2021/03/07 11:19:16;;;;;;;4.15;3.95;;;;;;;;;;5034050;28;20119;-80
2021/03/07 11:21:43;;;;;;;3.05;2.90;;;;;;;;;;5028158;28;20455;-80
2021/03/07 11:24:10;;;;;;;4.72;4.28;;;;;;;;;;5047662;28;20045;-80
2021/03/07 11:26:37;;;;;;;3.92;3.60;;;;;;;;;;5047459;28;20524;-80
2021/03/07 11:29:04;;;;;;;5.20;4.90;;;;;;;;;;5045050;28;20532;-80
2021/03/07 11:31:31;;;;;;;3.30;3.20;;;;;;;;;;5049268;28;20500;-80
2021/03/07 11:33:58;;;;;;;3.30;3.10;;;;;;;;;;5046824;28;20496;-80
2021/03/07 11:36:25;;;;;;;3.22;3.03;;;;;;;;;;5033485;28;20032;-80
2021/03/07 11:38:52;;;;;;;3.08;2.97;;;;;;;;;;5018926;28;20493;-80
2021/03/07 11:41:18;;;;;;;5.28;4.00;;;;;;;;;;5028099;28;20087;-80
2021/03/07 11:43:46;;;;;;;3.80;3.60;;;;;;;;;;5031300;28;20060;-79
2021/03/07 11:46:13;;;;;;;2.63;2.42;;;;;;;;;;5028842;28;20041;-79
2021/03/07 11:48:40;;;;;;;2.55;2.45;;;;;;;;;;5049967;28;20045;-79
2021/03/07 11:51:07;;;;;;;2.22;2.13;;;;;;;;;;5048741;28;20053;-79
2021/03/07 11:53:34;;;;;;;2.47;2.38;;;;;;;;;;5043372;28;20041;-79
2021/03/07 11:56:01;;;;;;;2.40;2.30;;;;;;;;;;5032205;28;20037;-79
2021/03/07 11:58:28;;;;;;;2.75;2.65;;;;;;;;;;5046636;28;20091;-79
2021/03/07 12:00:55;;;;;;;2.55;2.28;;;;;;;;;;5029308;28;20098;-79
2021/03/07 12:03:22;;;;;;;3.38;2.78;;;;;;;;;;5016381;28;20124;-79
2021/03/07 12:05:48;;;;;;;3.03;2.85;;;;;;;;;;5025352;28;20120;-79
2021/03/07 12:08:16;;;;;;;2.17;2.08;;;;;;;;;;5014591;28;20049;-79
2021/03/07 12:10:43;;;;;;;3.55;3.45;;;;;;;;;;5047078;28;20045;-79
2021/03/07 12:13:10;;;;;;;2.78;2.40;;;;;;;;;;5046135;28;20132;-79
2021/03/07 12:15:36;;;;;;;2.85;2.60;;;;;;;;;;5049626;28;20037;-79
2021/03/07 12:18:04;;;;;;;3.05;2.85;;;;;;;;;;5044758;28;20124;-79
2021/03/07 12:20:31;;;;;;;5.90;2.92;;;;;;;;;;5045851;28;20056;-79
2021/03/07 12:22:58;;;;;;;3.72;2.35;;;;;;;;;;5019423;28;20042;-79
2021/03/07 12:25:25;;;;;;;4.30;2.63;;;;;;;;;;5022858;28;20107;-79
2021/03/07 12:27:51;;;;;;;2.90;2.80;;;;;;;;;;5050773;28;20045;-79
2021/03/07 12:30:18;;;;;;;3.00;2.55;;;;;;;;;;5014112;28;20041;-79
2021/03/07 12:32:46;;;;;;;3.40;2.88;;;;;;;;;;5030013;28;20061;-79
2021/03/07 12:35:14;;;;;;;3.60;2.00;;;;;;;;;;5016214;28;20506;-79
2021/03/07 12:37:41;;;;;;;3.25;2.05;;;;;;;;;;5040156;28;20037;-79
2021/03/07 12:40:09;;;;;;;3.25;3.10;;;;;;;;;;5050401;28;20094;-79
2021/03/07 12:42:36;;;;;;;4.25;4.05;;;;;;;;;;5031521;28;20519;-79
2021/03/07 12:45:03;;;;;;;4.63;2.58;;;;;;;;;;5046826;28;20067;-79
2021/03/07 12:47:30;;;;;;;3.72;3.40;;;;;;;;;;5029601;28;20051;-79
2021/03/07 12:49:58;;;;;;;4.70;4.43;;;;;;;;;;5041783;28;20068;-79
2021/03/07 12:52:26;;;;;;;3.70;3.58;;;;;;;;;;5033687;28;20045;-79
2021/03/07 12:54:53;;;;;;;4.32;4.13;;;;;;;;;;5045905;28;20068;-79
2021/03/07 12:57:20;;;;;;;3.63;3.42;;;;;;;;;;5046186;28;20411;-79
2021/03/07 12:59:47;;;;;;;4.50;3.42;;;;;;;;;;5016722;28;20123;-79
2021/03/07 13:02:14;;;;;;;4.57;3.50;;;;;;;;;;5047427;28;20125;-79
2021/03/07 13:04:41;;;;;;;4.05;3.60;;;;;;;;;;5050430;28;20045;-79
2021/03/07 13:07:07;;;;;;;3.50;3.30;;;;;;;;;;5037941;28;20563;-79
2021/03/07 13:09:34;;;;;;;3.85;3.45;;;;;;;;;;5039934;28;20087;-79
2021/03/07 13:12:02;;;;;;;4.80;4.38;;;;;;;;;;5020193;28;20502;-79
2021/03/07 13:14:29;;;;;;;4.78;4.47;;;;;;;;;;5028924;28;20445;-79
2021/03/07 13:16:56;;;;;;;4.20;4.00;;;;;;;;;;5048449;28;20057;-79
2021/03/07 13:19:23;;;;;;;3.58;3.38;;;;;;;;;;5030608;28;20041;-79
2021/03/07 13:21:50;;;;;;;3.95;3.63;;;;;;;;;;5030806;28;20040;-79
2021/03/07 13:24:17;;;;;;;4.05;3.75;;;;;;;;;;5034088;28;20065;-79
2021/03/07 13:26:44;;;;;;;4.05;3.65;;;;;;;;;;5023818;28;20117;-79
2021/03/07 13:29:11;;;;;;;4.07;3.78;;;;;;;;;;5009857;28;20045;-79
2021/03/07 13:31:37;;;;;;;5.00;4.57;;;;;;;;;;5043240;28;20130;-79
2021/03/07 13:34:05;;;;;;;6.13;4.35;;;;;;;;;;5047189;28;20041;-79
2021/03/07 13:36:32;;;;;;;5.95;3.50;;;;;;;;;;5051739;28;20106;-79
2021/03/07 13:38:59;;;;;;;3.65;3.45;;;;;;;;;;5033262;28;20091;-79
2021/03/07 13:41:26;;;;;;;3.33;3.08;;;;;;;;;;5022975;28;20060;-79
2021/03/07 13:43:52;;;;;;;6.20;3.88;;;;;;;;;;5015958;28;20037;-79
2021/03/07 13:46:19;;;;;;;3.05;2.85;;;;;;;;;;5043955;28;20568;-79
2021/03/07 13:48:47;;;;;;;5.13;2.45;;;;;;;;;;5049461;28;20437;-79
2021/03/07 13:51:14;;;;;;;2.97;2.80;;;;;;;;;;5022155;28;20132;-79
2021/03/07 13:53:41;;;;;;;5.20;4.15;;;;;;;;;;5020008;28;20091;-79
2021/03/07 13:56:08;;;;;;;2.60;2.50;;;;;;;;;;5050321;28;20436;-79
2021/03/07 13:58:35;;;;;;;3.40;3.08;;;;;;;;;;5009600;28;20037;-79
2021/03/07 14:01:03;;;;;;;2.38;2.28;;;;;;;;;;5022595;28;20752;-79
2021/03/07 14:03:30;;;;;;;3.90;2.88;;;;;;;;;;5029359;28;20033;-79
2021/03/07 14:05:57;;;;;;;2.97;2.88;;;;;;;;;;5027839;28;20474;-79
2021/03/07 14:08:24;;;;;;;2.40;2.35;;;;;;;;;;5016276;28;20106;-79
2021/03/07 14:10:50;;;;;;;3.08;2.97;;;;;;;;;;5032653;28;20106;-79
2021/03/07 14:13:18;;;;;;;3.25;3.10;;;;;;;;;;5048225;28;20056;-79
2021/03/07 14:15:45;;;;;;;4.25;3.65;;;;;;;;;;5030511;28;20071;-79
2021/03/07 14:18:12;;;;;;;4.20;3.35;;;;;;;;;;5015019;28;20051;-79
2021/03/07 14:20:39;;;;;;;5.47;3.42;;;;;;;;;;5050379;28;20033;-79
2021/03/07 14:23:08;;;;;;;4.35;3.58;;;;;;;;;;5027873;28;20056;-79
2021/03/07 14:25:35;;;;;;;5.25;3.95;;;;;;;;;;5048284;28;20518;-79
2021/03/07 14:28:04;;;;;;;4.32;4.13;;;;;;;;;;5049756;28;20382;-79
2021/03/07 14:30:31;;;;;;;5.70;2.95;;;;;;;;;;5051887;28;20425;-79
2021/03/07 14:32:58;;;;;;;3.97;3.22;;;;;;;;;;5049854;28;20512;-79
2021/03/07 14:35:25;;;;;;;4.20;3.95;;;;;;;;;;5031373;28;20494;-79